createdAt,value
2022-11-05T06:15:49.752Z,3.71
2022-11-05T06:25:49.571Z,3.61
2022-11-05T06:35:49.576Z,3.57
2022-11-05T06:45:49.670Z,2.42
2022-11-05T06:55:49.674Z,2.48
2022-11-05T07:05:49.742Z,3.50
2022-11-05T07:15:49.654Z,4.36
2022-11-05T07:25:49.903Z,4.71
2022-11-05T07:35:49.717Z,5.04
2022-11-05T07:45:49.670Z,5.19
2022-11-05T07:55:49.810Z,5.50
2022-11-05T08:05:49.938Z,6.22
2022-11-05T08:15:49.825Z,6.93
2022-11-05T08:25:49.815Z,7.38
2022-11-05T08:35:49.767Z,7.33
2022-11-05T08:45:49.916Z,7.66
2022-11-05T08:55:50.227Z,7.76
2022-11-05T09:05:50.177Z,7.96
2022-11-05T09:15:50.249Z,7.93
2022-11-05T09:25:50.220Z,8.23
2022-11-05T09:35:50.307Z,8.43
2022-11-05T09:45:50.194Z,9.00
2022-11-05T09:55:50.188Z,9.12
2022-11-05T10:05:50.210Z,9.17
2022-11-05T10:15:50.279Z,9.36
2022-11-05T10:25:50.114Z,9.63
2022-11-05T10:35:50.181Z,9.66
2022-11-05T10:45:50.129Z,9.98
2022-11-05T10:55:50.159Z,10.31
2022-11-05T11:05:50.356Z,10.35
2022-11-05T11:15:50.293Z,10.08
2022-11-05T11:25:50.386Z,10.36
2022-11-05T11:35:50.332Z,10.31
2022-11-05T11:45:50.312Z,10.41
2022-11-05T11:55:50.614Z,10.83
2022-11-05T12:05:50.329Z,10.76
2022-11-05T12:15:50.307Z,10.79
2022-11-05T12:25:50.272Z,11.11
2022-11-05T12:35:56.421Z,11.01
2022-11-05T12:45:50.304Z,11.04
2022-11-05T12:55:50.206Z,10.96
2022-11-05T13:05:50.295Z,10.58
2022-11-05T13:15:51.255Z,10.53
2022-11-05T13:25:50.339Z,10.51
2022-11-05T13:35:50.345Z,11.08
2022-11-05T13:45:50.311Z,10.92
2022-11-05T13:55:50.327Z,11.10
2022-11-05T14:05:50.255Z,11.47
2022-11-05T14:15:50.409Z,11.14
2022-11-05T14:25:50.262Z,11.24
2022-11-05T14:35:50.313Z,10.66
2022-11-05T14:45:50.432Z,10.23
2022-11-05T14:55:50.363Z,9.83
2022-11-05T15:05:50.450Z,9.52
2022-11-05T15:15:50.438Z,9.24
2022-11-05T15:25:53.201Z,8.91
2022-11-05T15:35:50.378Z,8.68
2022-11-05T15:45:50.362Z,8.63
2022-11-05T15:55:50.267Z,8.64
2022-11-05T16:05:50.592Z,8.59
2022-11-05T16:15:50.513Z,8.48
2022-11-05T16:25:50.307Z,8.54
2022-11-05T16:35:50.534Z,8.45
2022-11-05T16:45:50.649Z,8.57
2022-11-05T16:55:50.457Z,8.49
2022-11-05T17:05:50.418Z,8.09
2022-11-05T17:15:50.568Z,8.04
2022-11-05T17:25:50.401Z,7.93
2022-11-05T17:35:50.467Z,7.82
2022-11-05T17:45:50.479Z,7.79
2022-11-05T17:55:50.501Z,7.32
2022-11-05T18:05:50.405Z,7.51
2022-11-05T18:15:50.379Z,7.74
2022-11-05T18:25:50.417Z,7.70
2022-11-05T18:35:50.525Z,7.71
2022-11-05T18:45:50.428Z,7.76
2022-11-05T18:55:50.498Z,7.62
2022-11-05T19:05:50.732Z,7.24
2022-11-05T19:15:50.707Z,7.11
